ADDS METAR Data INFO
IDs: Format: Raw Decoded Include TAF

Data at: 1111 UTC 18 Oct 2017

K3T5 181055Z AUTO 00000KT 10SM SCT003 08/07 A3013 RMK AO2 T00750068
K3T5 181035Z AUTO 00000KT 10SM CLR 08/07 A3013 RMK AO2 T00760069
K3T5 181015Z AUTO 00000KT 10SM CLR 08/07 A3013 RMK AO2 T00810071
K3T5 180955Z AUTO 00000KT 10SM CLR 08/07 A3013 RMK AO2 T00780069
K3T5 180935Z AUTO 00000KT 10SM CLR 08/07 A3013 RMK AO2 T00800070
K3T5 180915Z AUTO 00000KT 10SM CLR 08/08 A3013 RMK AO2 T00830077
K3T5 180855Z AUTO 00000KT 10SM CLR 08/08 A3013 RMK AO2 T00830078
K3T5 180835Z AUTO 00000KT 10SM CLR 08/08 A3013 RMK AO2 T00810076
K3T5 180815Z AUTO 00000KT 10SM CLR 09/08 A3014 RMK AO2 T00860081
K3T5 180755Z AUTO 00000KT 10SM CLR 09/08 A3014 RMK AO2 T00850078
K3T5 180735Z AUTO 00000KT 10SM CLR 09/09 A3014 RMK AO2 T00940085
K3T5 180715Z AUTO 00000KT 10SM CLR 10/08 A3014 RMK AO2 T00950081
K3T5 180655Z AUTO 00000KT 10SM CLR 10/09 A3014 RMK AO2 T00960086
K3T5 180635Z AUTO 00000KT 10SM CLR 10/09 A3014 RMK AO2 T00990086
K3T5 180615Z AUTO 00000KT 10SM CLR 10/09 A3014 RMK AO2 T01010086
K3T5 180555Z AUTO 00000KT 10SM CLR 11/09 A3015 RMK AO2 T01050085 10194 20105 402580073
K3T5 180535Z AUTO 00000KT 10SM CLR 11/09 A3015 RMK AO2 T01050085
K3T5 180515Z AUTO 00000KT 10SM CLR 11/09 A3015 RMK AO2 T01100086
K3T5 180455Z AUTO 00000KT 10SM CLR 11/09 A3015 RMK AO2 T01100089
K3T5 180435Z AUTO 00000KT 10SM CLR 12/09 A3016 RMK AO2 T01170090
K3T5 180415Z AUTO 00000KT 10SM CLR 12/09 A3016 RMK AO2 T01200090
K3T5 180355Z AUTO 00000KT 10SM CLR 12/09 A3016 RMK AO2 T01230091
K3T5 180335Z AUTO 00000KT 10SM CLR 13/09 A3016 RMK AO2 T01270092
K3T5 180315Z AUTO 00000KT 10SM CLR 13/09 A3016 RMK AO2 T01330092
K3T5 180255Z AUTO 00000KT 10SM CLR 14/09 A3016 RMK AO2 T01350091
K3T5 180235Z AUTO 00000KT 10SM CLR 14/09 A3015 RMK AO2 T01410092
K3T5 180215Z AUTO 00000KT 10SM CLR 14/09 A3015 RMK AO2 T01390094
K3T5 180155Z AUTO 00000KT 10SM CLR 15/09 A3015 RMK AO2 T01470093
K3T5 180135Z AUTO 00000KT 10SM CLR 15/10 A3015 RMK AO2 T01520095
K3T5 180115Z AUTO 00000KT 10SM CLR 16/10 A3015 RMK AO2 T01630097
K3T5 180055Z AUTO 00000KT 10SM CLR 17/10 A3014 RMK AO2 T01660097
K3T5 180035Z AUTO 00000KT 10SM CLR 17/10 A3014 RMK AO2 T01690100
K3T5 180015Z AUTO 00000KT 10SM CLR 18/11 A3014 RMK AO2 T01810106
K3T5 172355Z AUTO 00000KT 10SM CLR 20/11 A3013 RMK AO2 T01970113 10258 20197
K3T5 172335Z AUTO 00000KT 10SM CLR 24/09 A3012 RMK AO2 T02360087
K3T5 172315Z AUTO 00000KT 10SM CLR 24/08 A3012 RMK AO2 T02420081
K3T5 172255Z AUTO 00000KT 10SM CLR 25/08 A3013 RMK AO2 T02500077
K3T5 172235Z AUTO 02003KT 10SM CLR 26/08 A3013 RMK AO2 T02550084
K3T5 172215Z AUTO 00000KT 10SM CLR 26/08 A3014 RMK AO2 T02560080
K3T5 172155Z AUTO 04005KT 10SM CLR 26/08 A3014 RMK AO2 T02580080
K3T5 172135Z AUTO 00000KT 10SM CLR 26/08 A3014 RMK AO2 T02570078
K3T5 172115Z AUTO 00000KT 10SM CLR 25/08 A3014 RMK AO2 T02540080
K3T5 172055Z AUTO 00000KT 10SM CLR 25/08 A3014 RMK AO2 T02540081
K3T5 172035Z AUTO 04003KT 10SM CLR 25/07 A3015 RMK AO2 T02540074
K3T5 172015Z AUTO 06003KT 10SM CLR 25/07 A3016 RMK AO2 T02480072
K3T5 171955Z AUTO 04003KT 10SM CLR 25/07 A3016 RMK AO2 T02470072
K3T5 171935Z AUTO 06004KT 10SM CLR 25/08 A3017 RMK AO2 T02480083
K3T5 171915Z AUTO 00000KT 10SM CLR 24/08 A3019 RMK AO2 T02400075
K3T5 171855Z AUTO 35004KT 10SM CLR 24/08 A3020 RMK AO2 T02390083
K3T5 171835Z AUTO 36003KT 10SM CLR 23/08 A3022 RMK AO2 T02340077
K3T5 171815Z AUTO 05004KT 10SM CLR 24/08 A3023 RMK AO2 T02350078
K3T5 171755Z AUTO 36003KT 10SM CLR 23/07 A3024 RMK AO2 T02250073 10228 20075
K3T5 171735Z AUTO 33004KT 10SM CLR 22/07 A3025 RMK AO2 T02210071
K3T5 171715Z AUTO 05006KT 10SM CLR 22/08 A3025 RMK AO2 T02160077
K3T5 171655Z AUTO 00000KT 10SM CLR 21/07 A3027 RMK AO2 T02110074
K3T5 171635Z AUTO 06005KT 10SM CLR 21/08 A3028 RMK AO2 T02080077
K3T5 171615Z AUTO 11004KT 10SM CLR 20/08 A3028 RMK AO2 T02010075
K3T5 171555Z AUTO 07004KT 10SM CLR 20/07 A3028 RMK AO2 T01960073
K3T5 171535Z AUTO 08006KT 10SM CLR 19/08 A3029 RMK AO2 T01910077
K3T5 171515Z AUTO 10005KT 10SM CLR 18/10 A3028 RMK AO2 T01750099
K3T5 171455Z AUTO 00000KT 10SM CLR 16/10 A3029 RMK AO2 T01550099
K3T5 171435Z AUTO 00000KT 10SM CLR 14/10 A3029 RMK AO2 T01430097
K3T5 171415Z AUTO 00000KT 10SM CLR 13/09 A3029 RMK AO2 T01310092
K3T5 171355Z AUTO 00000KT 10SM CLR 12/09 A3027 RMK AO2 T01200089
K3T5 171335Z AUTO 00000KT 10SM CLR 11/08 A3027 RMK AO2 T01060083
K3T5 171315Z AUTO 00000KT 10SM CLR 10/08 A3027 RMK AO2 T00950080
K3T5 171255Z AUTO 00000KT 10SM CLR 08/07 A3027 RMK AO2 T00800068
K3T5 171235Z AUTO 00000KT 10SM CLR 08/07 A3026 RMK AO2 T00760065
K3T5 171215Z AUTO 00000KT 10SM CLR 08/07 A3025 RMK AO2 T00790068
K3T5 171155Z AUTO 00000KT 10SM CLR 08/07 A3024 RMK AO2 T00750066 10126 20073
K3T5 171135Z AUTO 00000KT 10SM CLR 09/07 A3024 RMK AO2 T00850070
K3T5 171115Z AUTO 00000KT 10SM CLR 09/07 A3024 RMK AO2 T00850070
K3T5 171055Z AUTO 00000KT 10SM CLR 09/07 A3024 RMK AO2 T00850069
K3T5 171035Z AUTO 00000KT 10SM CLR 09/07 A3024 RMK AO2 T00910073
K3T5 171015Z AUTO 00000KT 10SM CLR 09/07 A3023 RMK AO2 T00910073
K3T5 170955Z AUTO 00000KT 10SM CLR 09/07 A3023 RMK AO2 T00910072
K3T5 170935Z AUTO 00000KT 10SM CLR 09/07 A3023 RMK AO2 T00900074
K3T5 170915Z AUTO 00000KT 10SM CLR 09/07 A3023 RMK AO2 T00940074
K3T5 170855Z AUTO 00000KT 10SM CLR 09/07 A3023 RMK AO2 T00910072
K3T5 170835Z AUTO 00000KT 10SM CLR 10/08 A3023 RMK AO2 T00990075
K3T5 170815Z AUTO 00000KT 10SM CLR 09/08 A3023 RMK AO2 T00910077
K3T5 170755Z AUTO 00000KT 10SM CLR 10/08 A3023 RMK AO2 T01030077
K3T5 170735Z AUTO 00000KT 10SM CLR 10/09 A3024 RMK AO2 T01000087
K3T5 170715Z AUTO 00000KT 10SM CLR 11/08 A3023 RMK AO2 T01070079
K3T5 170655Z AUTO 00000KT 10SM CLR 11/08 A3023 RMK AO2 T01100080
K3T5 170635Z AUTO 00000KT 10SM CLR 11/08 A3023 RMK AO2 T01120080
K3T5 170615Z AUTO 00000KT 10SM CLR 12/08 A3023 RMK AO2 T01200080
K3T5 170555Z AUTO 00000KT 10SM CLR 13/08 A3023 RMK AO2 T01260082 10219 20121 402510121
K3T5 170535Z AUTO 00000KT 10SM CLR 13/08 A3024 RMK AO2 T01270083
K3T5 170515Z AUTO 00000KT 10SM CLR 13/09 A3024 RMK AO2 T01310085
K3T5 170455Z AUTO 00000KT 10SM CLR 13/08 A3024 RMK AO2 T01320084
K3T5 170435Z AUTO 00000KT 10SM CLR 14/08 A3025 RMK AO2 T01380084
K3T5 170415Z AUTO 00000KT 10SM CLR 14/09 A3025 RMK AO2 T01370086
K3T5 170355Z AUTO 00000KT 10SM CLR 14/09 A3025 RMK AO2 T01440085
K3T5 170335Z AUTO 00000KT 10SM CLR 15/08 A3025 RMK AO2 T01490084
K3T5 170315Z AUTO 34003KT 10SM CLR 15/09 A3025 RMK AO2 T01490088
K3T5 170255Z AUTO 00000KT 10SM CLR 15/09 A3025 RMK AO2 T01470089
K3T5 170235Z AUTO 00000KT 10SM CLR 15/09 A3024 RMK AO2 T01500091
K3T5 170215Z AUTO 00000KT 10SM CLR 16/09 A3024 RMK AO2 T01560087
K3T5 170155Z AUTO 00000KT 10SM CLR 16/09 A3024 RMK AO2 T01590091
K3T5 170135Z AUTO 00000KT 10SM CLR 16/08 A3023 RMK AO2 T01630083
K3T5 170115Z AUTO 00000KT 10SM CLR 17/09 A3023 RMK AO2 T01740087
K3T5 170055Z AUTO 00000KT 10SM CLR 18/09 A3022 RMK AO2 T01760085
K3T5 170035Z AUTO 00000KT 10SM CLR 19/08 A3022 RMK AO2 T01900084
K3T5 170015Z AUTO 35003KT 10SM CLR 21/08 A3021 RMK AO2 T02110077
K3T5 162355Z AUTO 35003KT 10SM CLR 22/07 A3021 RMK AO2 T02200074 10251 20220
K3T5 162335Z AUTO 36005KT 10SM CLR 23/08 A3020 RMK AO2 T02270075
K3T5 162315Z AUTO 36004KT 10SM CLR 24/07 A3019 RMK AO2 T02360074